Portada
METAR-TAF:

METAR-TAF

Aeropuertos :

Aeropuerto Internacional Hamad

Doha, Qatar

latitud: 25-16-23N, longitud: 51-36-29E, altitud: 4 m

Observación

El informe se hizo hace 1 hora y 11 minutos, a las 22:00 UTC
Viento 7 kt del noroeste
Temperatura 15°C
Humedad 63%
Presión 1020 hPa
Visibilidad 10 km o más
sin nubes por debajo de 1500 m y sin presencia de cumulonimbus.

METAR: OTHH 242200Z AUTO 32007KT CAVOK 15/08 Q1020 NOSIG

Hora: 02:11 (23:11 UTC)

Pronóstico

El informe se hizo hace 6 horas y 0 minutos, a las 17:11 UTC
Pronóstico válido del 24 a las 18 UTC al 25 a las 24 UTC
Viento 7 kt del oeste-noroeste
Visibilidad: 8000 m
Evolucionando progresivamente
del 25 a las 02 UTC al 25 a las 04 UTC
Viento 3 kt con dirección variable

TAF: OTHH 241711Z 2418/2524 30007KT 8000 NSC BECMG 2502/2504 VRB03KT

Observaciones y pronósticos meteorológicos de más de 4000 aeropuertos (mensajes METAR y TAF).

Los puntos amarillos y rojos representan las estaciones disponibles.

Ponga el ratón en el punto deseado para ver el nombre de la estación.

Haga clic para ver las observaciones y los pronósticos meteorológicos.

Para cambiar el mapa : haga clic en los botones verdes con una cruz de color negro para hacer un zoom, en el botón verde con un guión para alejar o en las flechas verdes para mapas adyacentes.


METAR-TAF: